createdAt,value
2022-12-16T00:01:54.962Z,16.35
2022-12-16T00:04:23.418Z,16.67
2022-12-16T00:06:51.776Z,15.82
2022-12-16T00:09:20.497Z,15.70
2022-12-16T00:11:50.391Z,15.23
2022-12-16T00:14:19.917Z,16.35
2022-12-16T00:16:48.213Z,16.48
2022-12-16T00:19:16.665Z,16.70
2022-12-16T00:21:44.932Z,14.73
2022-12-16T00:24:13.366Z,15.40
2022-12-16T00:26:41.556Z,17.25
2022-12-16T00:29:11.603Z,19.27
2022-12-16T00:31:40.005Z,19.23
2022-12-16T00:34:08.710Z,19.75
2022-12-16T00:36:36.994Z,16.98
2022-12-16T00:39:05.426Z,19.60
2022-12-16T00:41:33.719Z,21.92
2022-12-16T00:44:02.109Z,17.33
2022-12-16T00:46:32.014Z,16.35
2022-12-16T00:49:00.523Z,18.35
2022-12-16T00:51:28.878Z,14.52
2022-12-16T00:53:57.225Z,15.45
2022-12-16T00:56:25.464Z,18.83
2022-12-16T00:58:53.652Z,15.20
2022-12-16T01:01:23.428Z,12.32
2022-12-16T01:03:53.331Z,14.73
2022-12-16T01:06:23.576Z,12.93
2022-12-16T01:08:51.982Z,14.10
2022-12-16T01:11:21.781Z,13.05
2022-12-16T01:13:52.737Z,15.23
2022-12-16T01:16:24.105Z,13.05
2022-12-16T01:18:55.487Z,13.60
2022-12-16T01:21:24.128Z,12.55
2022-12-16T01:23:52.426Z,13.13
2022-12-16T01:26:23.813Z,13.73
2022-12-16T01:28:52.219Z,10.93
2022-12-16T01:31:21.976Z,14.77
2022-12-16T01:33:51.255Z,11.95
2022-12-16T01:36:21.396Z,12.90
2022-12-16T01:38:50.803Z,12.63
2022-12-16T01:41:20.520Z,12.50
2022-12-16T01:43:49.153Z,10.90
2022-12-16T01:46:23.350Z,12.00
2022-12-16T01:48:56.550Z,10.90
2022-12-16T01:51:31.920Z,14.30
2022-12-16T01:54:05.601Z,13.15
2022-12-16T01:56:36.159Z,12.20
2022-12-16T01:59:04.808Z,12.90
2022-12-16T02:01:33.310Z,13.40
2022-12-16T02:04:04.489Z,12.90
2022-12-16T02:06:34.720Z,10.82
2022-12-16T02:09:09.149Z,12.10
2022-12-16T02:11:56.128Z,12.88
2022-12-16T02:14:58.370Z,11.18
2022-12-16T02:17:33.470Z,8.73
2022-12-16T02:20:46.424Z,8.13
2022-12-16T02:23:42.495Z,7.35
2022-12-16T02:26:44.800Z,6.75
2022-12-16T02:29:38.276Z,10.23
2022-12-16T02:32:16.169Z,10.73
2022-12-16T02:34:50.705Z,10.73
2022-12-16T02:37:32.563Z,9.57
2022-12-16T02:40:02.943Z,7.63
2022-12-16T02:42:33.538Z,6.50
2022-12-16T02:45:05.794Z,8.65
2022-12-16T02:47:35.779Z,9.38
2022-12-16T02:50:04.092Z,9.05
2022-12-16T02:52:36.384Z,7.70
2022-12-16T02:55:10.398Z,8.73
2022-12-16T02:57:56.412Z,7.72
2022-12-16T03:00:25.917Z,10.30
2022-12-16T03:03:02.679Z,10.20
2022-12-16T03:05:34.579Z,8.02
2022-12-16T03:08:07.567Z,9.98
2022-12-16T03:10:40.916Z,8.88
2022-12-16T03:13:12.482Z,10.55
2022-12-16T03:15:42.682Z,9.82
2022-12-16T03:18:16.964Z,9.88
2022-12-16T03:20:51.021Z,10.48
2022-12-16T03:23:24.154Z,11.35
2022-12-16T03:25:57.445Z,10.48
2022-12-16T03:28:38.350Z,12.68
2022-12-16T03:31:14.911Z,12.95
2022-12-16T03:33:51.409Z,10.77
2022-12-16T03:36:24.067Z,12.57
2022-12-16T03:38:53.207Z,10.00
2022-12-16T03:41:24.556Z,10.07
2022-12-16T03:43:53.814Z,12.85
2022-12-16T03:46:22.672Z,14.48
2022-12-16T03:48:53.615Z,10.88
2022-12-16T03:51:22.112Z,12.38
2022-12-16T03:53:50.549Z,11.80
2022-12-16T03:56:18.789Z,12.25
2022-12-16T03:58:47.251Z,13.73
2022-12-16T04:01:16.282Z,12.68
2022-12-16T04:03:44.542Z,11.88
2022-12-16T04:06:19.066Z,16.05
2022-12-16T04:08:47.642Z,11.73
2022-12-16T04:11:34.288Z,13.60
2022-12-16T04:14:20.221Z,9.60
2022-12-16T04:17:06.272Z,11.73
2022-12-16T04:19:55.620Z,9.30
2022-12-16T04:22:45.492Z,9.98
2022-12-16T04:25:17.951Z,8.05
2022-12-16T04:27:47.307Z,9.32
2022-12-16T04:30:22.168Z,9.48
2022-12-16T04:33:12.380Z,7.20
2022-12-16T04:35:58.376Z,9.75
2022-12-16T04:38:45.695Z,8.43
2022-12-16T04:41:31.283Z,11.93
2022-12-16T04:44:17.675Z,7.38
2022-12-16T04:47:03.917Z,11.93
2022-12-16T04:49:54.787Z,11.57
2022-12-16T04:52:40.121Z,9.82
2022-12-16T04:55:28.237Z,9.27
2022-12-16T04:58:15.714Z,9.90
2022-12-16T05:01:02.484Z,9.13
2022-12-16T05:03:48.632Z,8.35
2022-12-16T05:06:35.957Z,8.10
2022-12-16T05:09:22.580Z,7.05
2022-12-16T05:12:24.207Z,8.57
2022-12-16T05:15:10.223Z,8.18
2022-12-16T05:17:55.505Z,8.38
2022-12-16T05:20:41.086Z,7.38
2022-12-16T05:23:27.009Z,7.95
2022-12-16T05:26:12.946Z,9.45
2022-12-16T05:28:59.998Z,15.23
2022-12-16T05:31:46.035Z,12.95
2022-12-16T05:34:43.203Z,11.35
2022-12-16T05:37:29.178Z,13.98
2022-12-16T05:40:14.735Z,12.50
2022-12-16T05:43:03.727Z,13.73
2022-12-16T05:45:51.056Z,12.43
2022-12-16T05:48:36.433Z,13.35
2022-12-16T05:51:22.066Z,10.98
2022-12-16T05:54:07.485Z,9.95
2022-12-16T05:56:53.603Z,10.43
2022-12-16T05:59:39.120Z,9.27
2022-12-16T06:02:26.413Z,11.18
2022-12-16T06:05:12.321Z,9.25
2022-12-16T06:07:57.914Z,9.40
2022-12-16T06:10:43.780Z,9.10
2022-12-16T06:13:29.503Z,13.82
2022-12-16T06:16:15.499Z,13.10
2022-12-16T06:19:03.455Z,13.18
2022-12-16T06:21:48.970Z,14.23
2022-12-16T06:24:34.562Z,11.50
2022-12-16T06:27:20.369Z,13.35
2022-12-16T06:30:06.053Z,10.10
2022-12-16T06:32:53.431Z,10.98
2022-12-16T06:35:41.037Z,10.85
2022-12-16T06:38:26.425Z,12.05
2022-12-16T06:41:12.419Z,13.90
2022-12-16T06:43:58.551Z,15.93
2022-12-16T06:46:44.171Z,12.07
2022-12-16T06:49:30.151Z,12.70
2022-12-16T06:52:17.186Z,12.05
2022-12-16T06:55:02.941Z,11.93
2022-12-16T06:57:48.686Z,11.65
2022-12-16T07:00:34.977Z,11.45
2022-12-16T07:03:20.334Z,11.13
2022-12-16T07:06:06.243Z,9.82
2022-12-16T07:08:53.406Z,10.60
2022-12-16T07:11:50.487Z,11.00
2022-12-16T07:14:36.210Z,12.38
2022-12-16T07:17:21.757Z,20.90
2022-12-16T07:20:07.175Z,14.52
2022-12-16T07:23:04.113Z,12.23
2022-12-16T07:25:57.517Z,10.95
2022-12-16T07:28:43.160Z,11.37
2022-12-16T07:31:28.989Z,9.50
2022-12-16T07:34:15.342Z,9.05
2022-12-16T07:37:00.916Z,10.55
2022-12-16T07:39:55.638Z,12.85
2022-12-16T07:42:43.123Z,11.68
2022-12-16T07:45:29.709Z,11.25
2022-12-16T07:48:24.186Z,12.60
2022-12-16T07:51:09.948Z,11.05
2022-12-16T07:53:56.001Z,10.27
2022-12-16T07:56:42.224Z,9.65
2022-12-16T07:59:29.518Z,13.30
2022-12-16T08:02:15.107Z,11.32
2022-12-16T08:05:00.747Z,11.98
2022-12-16T08:07:46.208Z,11.82
2022-12-16T08:10:31.984Z,16.25
2022-12-16T08:13:25.525Z,11.00
2022-12-16T08:16:13.470Z,12.47
2022-12-16T08:18:59.203Z,14.07
2022-12-16T08:21:44.945Z,12.52
2022-12-16T08:24:30.641Z,15.50
2022-12-16T08:27:16.097Z,13.25
2022-12-16T08:30:02.029Z,9.93
2022-12-16T08:32:50.579Z,10.20
2022-12-16T08:35:39.322Z,9.48
2022-12-16T08:38:24.830Z,13.88
2022-12-16T08:41:14.012Z,11.60
2022-12-16T08:43:59.465Z,10.80
2022-12-16T08:46:45.430Z,7.97
2022-12-16T08:49:32.670Z,13.57
2022-12-16T08:52:18.537Z,11.40
2022-12-16T08:55:04.302Z,11.20
2022-12-16T08:57:50.145Z,10.88
2022-12-16T09:00:36.052Z,10.63
2022-12-16T09:03:22.253Z,10.35
2022-12-16T09:06:09.667Z,9.85
2022-12-16T09:08:57.988Z,13.17
2022-12-16T09:11:43.418Z,11.80
2022-12-16T09:14:29.591Z,13.40
2022-12-16T09:17:15.191Z,11.90
2022-12-16T09:20:01.138Z,13.43
2022-12-16T09:22:44.516Z,19.23
2022-12-16T09:25:30.064Z,13.20
2022-12-16T09:28:15.808Z,21.10
2022-12-16T09:31:01.532Z,15.60
2022-12-16T09:33:47.073Z,14.33
2022-12-16T09:36:33.245Z,15.00
2022-12-16T09:39:20.619Z,14.55
2022-12-16T09:42:21.065Z,12.27
2022-12-16T09:45:17.901Z,14.40
2022-12-16T09:48:11.103Z,15.07
2022-12-16T09:51:00.409Z,18.70
2022-12-16T09:53:51.189Z,13.47
2022-12-16T09:56:44.053Z,17.10
2022-12-16T09:59:32.157Z,15.20
2022-12-16T10:02:18.830Z,16.93
2022-12-16T10:05:10.432Z,14.27
2022-12-16T10:08:03.812Z,19.57
2022-12-16T10:10:59.611Z,21.13
2022-12-16T10:13:56.110Z,19.50
2022-12-16T10:16:51.086Z,16.03
2022-12-16T10:19:52.203Z,15.13
2022-12-16T10:22:46.521Z,16.33
2022-12-16T10:25:37.474Z,15.53
2022-12-16T10:28:34.251Z,13.67
2022-12-16T10:31:24.584Z,16.70
2022-12-16T10:34:12.685Z,14.20
2022-12-16T10:37:02.822Z,12.63
2022-12-16T10:39:55.503Z,14.77
2022-12-16T10:42:47.068Z,15.20
2022-12-16T10:45:39.991Z,14.23
2022-12-16T10:48:29.363Z,13.73
2022-12-16T10:51:18.063Z,13.17
2022-12-16T10:54:05.760Z,12.60
2022-12-16T10:57:08.373Z,13.07
2022-12-16T10:59:56.077Z,12.13
2022-12-16T11:02:44.219Z,13.13
2022-12-16T11:05:50.072Z,12.47
2022-12-16T11:08:47.269Z,13.33
2022-12-16T11:11:40.367Z,15.80
2022-12-16T11:14:38.943Z,13.80
2022-12-16T11:17:45.335Z,14.23
2022-12-16T11:20:37.946Z,13.40
2022-12-16T11:23:52.035Z,13.47
2022-12-16T11:26:38.672Z,13.03
2022-12-16T11:29:29.720Z,14.03
2022-12-16T11:32:33.441Z,15.37
2022-12-16T11:35:22.345Z,22.13
2022-12-16T11:38:11.520Z,16.83
2022-12-16T11:40:59.176Z,15.10
2022-12-16T11:43:56.617Z,14.53
2022-12-16T11:46:46.169Z,18.83
2022-12-16T11:49:39.819Z,16.80
2022-12-16T11:52:37.868Z,20.50
2022-12-16T11:58:53.785Z,15.83
2022-12-16T12:01:46.792Z,17.03
2022-12-16T12:04:33.108Z,17.07
2022-12-16T12:07:44.519Z,16.13
2022-12-16T12:10:49.772Z,16.83
2022-12-16T12:13:52.480Z,15.37
2022-12-16T12:16:47.135Z,13.80
2022-12-16T12:19:43.874Z,17.33
2022-12-16T12:22:47.635Z,18.90
2022-12-16T12:25:42.316Z,17.90
2022-12-16T12:28:39.571Z,17.33
2022-12-16T12:31:33.948Z,18.63
2022-12-16T12:34:31.825Z,16.27
2022-12-16T12:37:26.439Z,18.13
2022-12-16T12:40:20.779Z,16.50
2022-12-16T12:43:11.980Z,22.37
2022-12-16T12:46:10.506Z,21.00
2022-12-16T12:49:02.648Z,25.57
2022-12-16T12:52:01.483Z,19.03
2022-12-16T12:54:55.464Z,42.63
2022-12-16T12:57:56.620Z,23.83
2022-12-16T13:00:45.949Z,23.17
2022-12-16T13:03:35.282Z,26.80
2022-12-16T13:06:22.430Z,27.80
2022-12-16T13:09:16.747Z,25.50
2022-12-16T13:12:43.973Z,25.90
2022-12-16T13:15:38.098Z,26.50
2022-12-16T13:18:43.568Z,27.13
2022-12-16T13:22:04.372Z,29.57
2022-12-16T13:25:04.232Z,24.80
2022-12-16T13:28:08.388Z,25.30
2022-12-16T13:30:54.507Z,23.90
2022-12-16T13:33:48.003Z,26.53
2022-12-16T13:36:35.869Z,26.27
2022-12-16T13:39:41.739Z,24.07
2022-12-16T13:43:06.439Z,23.03
2022-12-16T13:45:55.488Z,23.10
2022-12-16T13:48:53.746Z,23.13
2022-12-16T13:52:24.530Z,22.57
2022-12-16T13:55:34.892Z,21.80
2022-12-16T13:58:35.855Z,24.13
2022-12-16T14:01:29.263Z,22.97
2022-12-16T14:04:17.425Z,24.70
2022-12-16T14:07:03.952Z,24.27
2022-12-16T14:09:53.968Z,26.83
2022-12-16T14:13:02.575Z,31.43
2022-12-16T14:15:58.874Z,30.63
2022-12-16T14:18:56.771Z,30.67
2022-12-16T14:21:50.495Z,27.17
2022-12-16T14:24:51.126Z,28.67
2022-12-16T14:27:39.211Z,29.57
2022-12-16T14:30:37.429Z,28.30
2022-12-16T14:33:44.160Z,35.00
2022-12-16T14:36:39.181Z,30.67
2022-12-16T14:39:29.712Z,33.00
2022-12-16T14:42:15.702Z,35.73
2022-12-16T14:45:04.534Z,34.37
2022-12-16T14:47:51.315Z,31.57
2022-12-16T14:50:45.145Z,30.27
2022-12-16T14:53:37.128Z,27.87
2022-12-16T14:56:34.924Z,31.30
2022-12-16T14:59:28.523Z,25.77
2022-12-16T15:02:17.685Z,30.67
2022-12-16T15:05:04.157Z,27.67
2022-12-16T15:07:56.181Z,27.73
2022-12-16T15:10:45.127Z,30.87
2022-12-16T15:13:36.648Z,28.30
2022-12-16T15:16:24.942Z,26.33
2022-12-16T15:19:17.859Z,27.17
2022-12-16T15:22:03.811Z,38.07
2022-12-16T15:25:05.160Z,28.83
2022-12-16T15:27:54.426Z,32.57
2022-12-16T15:30:56.861Z,30.13
2022-12-16T15:33:44.482Z,35.33
2022-12-16T15:36:43.908Z,31.55
2022-12-16T15:39:35.954Z,35.70
2022-12-16T15:42:23.456Z,33.13
2022-12-16T15:45:10.485Z,31.13
2022-12-16T15:47:57.192Z,29.27
2022-12-16T15:50:45.794Z,28.00
2022-12-16T15:53:49.727Z,29.40
2022-12-16T15:56:40.087Z,29.03
2022-12-16T15:59:44.151Z,33.83
2022-12-16T16:02:37.677Z,25.57
2022-12-16T16:05:30.195Z,25.10
2022-12-16T16:08:16.023Z,26.07
2022-12-16T16:11:02.574Z,31.87
2022-12-16T16:13:49.717Z,25.43
2022-12-16T16:16:37.307Z,26.20
2022-12-16T16:19:27.633Z,32.40
2022-12-16T16:22:13.496Z,26.93
2022-12-16T16:24:59.706Z,23.58
2022-12-16T16:27:46.474Z,27.33
2022-12-16T16:30:32.492Z,24.73
2022-12-16T16:33:19.639Z,26.47
2022-12-16T16:36:05.618Z,31.90
2022-12-16T16:38:51.110Z,22.27
2022-12-16T16:41:39.181Z,26.57
2022-12-16T16:44:24.573Z,24.13
2022-12-16T16:47:10.529Z,24.37
2022-12-16T16:50:03.164Z,24.63
2022-12-16T16:52:50.650Z,20.00
2022-12-16T16:55:38.873Z,20.37
2022-12-16T16:58:28.071Z,25.20
2022-12-16T17:01:28.575Z,19.47
2022-12-16T17:04:14.996Z,21.17
2022-12-16T17:07:01.874Z,21.07
2022-12-16T17:09:47.597Z,21.80
2022-12-16T17:12:38.760Z,24.07
2022-12-16T17:15:34.191Z,25.40
2022-12-16T17:18:20.686Z,21.97
2022-12-16T17:21:08.646Z,22.30
2022-12-16T17:23:55.753Z,21.53
2022-12-16T17:26:41.939Z,22.97
2022-12-16T17:29:37.011Z,21.10
2022-12-16T17:32:22.944Z,23.43
2022-12-16T17:35:08.344Z,24.10
2022-12-16T17:37:54.343Z,39.70
2022-12-16T17:40:41.534Z,30.88
2022-12-16T17:43:27.873Z,26.13
2022-12-16T17:46:18.209Z,27.20
2022-12-16T17:49:04.366Z,28.07
2022-12-16T17:51:50.058Z,22.67
2022-12-16T17:54:36.954Z,21.63
2022-12-16T17:57:24.024Z,24.33
2022-12-16T18:00:09.879Z,24.63
2022-12-16T18:02:56.058Z,24.03
2022-12-16T18:05:44.709Z,23.33
2022-12-16T18:08:30.784Z,24.20
2022-12-16T18:11:17.315Z,24.17
2022-12-16T18:14:05.039Z,25.37
2022-12-16T18:16:51.052Z,31.23
2022-12-16T18:19:36.759Z,28.87
2022-12-16T18:22:31.392Z,32.90
2022-12-16T18:25:16.941Z,31.37
2022-12-16T18:28:02.703Z,28.50
2022-12-16T18:31:04.950Z,33.47
2022-12-16T18:33:51.559Z,28.20
2022-12-16T18:36:37.427Z,29.37
2022-12-16T18:39:24.246Z,30.03
2022-12-16T18:42:10.463Z,55.30
2022-12-16T18:45:07.673Z,35.77
2022-12-16T18:47:54.650Z,28.53
2022-12-16T18:50:40.248Z,25.20
2022-12-16T18:53:26.452Z,33.30
2022-12-16T18:56:19.357Z,27.93
2022-12-16T18:59:04.944Z,30.13
2022-12-16T19:01:50.678Z,31.20
2022-12-16T19:04:38.255Z,29.70
2022-12-16T19:07:23.950Z,27.10
2022-12-16T19:10:10.034Z,30.10
2022-12-16T19:12:56.237Z,29.93
2022-12-16T19:15:41.898Z,29.07
2022-12-16T19:18:27.813Z,26.73
2022-12-16T19:21:15.877Z,25.13
2022-12-16T19:24:02.047Z,27.43
2022-12-16T19:26:47.837Z,26.90
2022-12-16T19:29:33.631Z,29.73
2022-12-16T19:32:19.269Z,27.60
2022-12-16T19:35:06.212Z,27.43
2022-12-16T19:37:53.754Z,25.97
2022-12-16T19:40:39.768Z,23.80
2022-12-16T19:43:25.947Z,29.80
2022-12-16T19:46:12.180Z,35.80
2022-12-16T19:48:58.202Z,31.40
2022-12-16T19:51:44.667Z,31.83
2022-12-16T19:54:31.622Z,26.10
2022-12-16T19:57:17.154Z,25.17
2022-12-16T20:00:12.695Z,24.93
2022-12-16T20:02:58.489Z,27.07
2022-12-16T20:05:45.007Z,27.73
2022-12-16T20:08:32.070Z,27.57
2022-12-16T20:11:23.777Z,22.93
2022-12-16T20:14:11.839Z,29.70
2022-12-16T20:16:58.095Z,29.33
2022-12-16T20:19:44.155Z,25.83
2022-12-16T20:22:30.149Z,25.13
2022-12-16T20:25:16.978Z,24.67
2022-12-16T20:28:04.215Z,24.37
2022-12-16T20:30:50.357Z,23.73
2022-12-16T20:33:35.897Z,21.50
2022-12-16T20:36:23.683Z,22.27
2022-12-16T20:39:10.062Z,32.30
2022-12-16T20:42:00.164Z,26.83
2022-12-16T20:44:52.717Z,27.10
2022-12-16T20:47:43.976Z,24.30
2022-12-16T20:50:30.442Z,23.93
2022-12-16T20:53:16.843Z,24.03
2022-12-16T20:56:08.771Z,23.40
2022-12-16T20:58:56.196Z,24.27
2022-12-16T21:02:21.810Z,21.57
2022-12-16T21:05:05.943Z,20.00
2022-12-16T21:07:51.874Z,23.47
2022-12-16T21:10:43.058Z,21.03
2022-12-16T21:13:30.743Z,22.43
2022-12-16T21:16:17.401Z,23.77
2022-12-16T21:19:04.192Z,21.70
2022-12-16T21:21:50.123Z,21.70
2022-12-16T21:24:35.607Z,19.17
2022-12-16T21:27:21.491Z,20.40
2022-12-16T21:30:07.501Z,18.67
2022-12-16T21:32:53.374Z,19.77
2022-12-16T21:39:01.150Z,19.27
2022-12-16T21:41:46.813Z,19.97
2022-12-16T21:44:32.244Z,17.53
2022-12-16T21:47:17.966Z,16.97
2022-12-16T21:50:03.554Z,16.67
2022-12-16T21:52:50.883Z,17.30
2022-12-16T21:55:39.162Z,16.77
2022-12-16T21:58:29.224Z,15.17
2022-12-16T22:01:15.515Z,14.67
2022-12-16T22:04:01.312Z,15.33
2022-12-16T22:06:49.117Z,15.10
2022-12-16T22:09:36.545Z,16.23
2022-12-16T22:12:22.920Z,16.10
2022-12-16T22:15:08.927Z,16.77
2022-12-16T22:17:58.643Z,18.33
2022-12-16T22:20:44.944Z,16.17
2022-12-16T22:23:30.527Z,14.70
2022-12-16T22:26:24.217Z,14.03
2022-12-16T22:29:11.308Z,15.90
2022-12-16T22:31:57.049Z,15.77
2022-12-16T22:34:42.700Z,14.47
2022-12-16T22:37:24.673Z,18.73
2022-12-16T22:40:10.385Z,18.87
2022-12-16T22:42:57.512Z,17.43
2022-12-16T22:45:58.023Z,17.60
2022-12-16T22:48:44.296Z,17.03
2022-12-16T22:51:30.308Z,16.33
2022-12-16T22:54:16.546Z,14.20
2022-12-16T22:56:58.708Z,13.63
2022-12-16T22:59:46.119Z,14.97
2022-12-16T23:02:31.731Z,15.47
2022-12-16T23:05:19.165Z,14.07
2022-12-16T23:08:08.553Z,16.13
2022-12-16T23:10:55.504Z,13.33
2022-12-16T23:13:52.532Z,14.83
2022-12-16T23:16:40.743Z,12.63
2022-12-16T23:19:26.415Z,12.97
2022-12-16T23:22:11.826Z,12.70
2022-12-16T23:24:57.509Z,13.70
2022-12-16T23:27:42.798Z,11.93
2022-12-16T23:30:29.856Z,12.60
2022-12-16T23:33:18.058Z,11.30
2022-12-16T23:36:03.685Z,13.63
2022-12-16T23:38:49.539Z,14.17
2022-12-16T23:41:31.731Z,15.43
2022-12-16T23:44:17.947Z,13.33
2022-12-16T23:47:03.720Z,14.17
2022-12-16T23:49:51.995Z,12.30
2022-12-16T23:52:37.470Z,11.90
2022-12-16T23:55:29.114Z,12.33
2022-12-16T23:58:17.911Z,12.77
